sensor_id;sensor_type;location;lat;lon;timestamp;P1;durP1;ratioP1;P2;durP2;ratioP2
16440;SDS011;8330;-33.858;151.184;2023-05-10T00:02:31;3.20;;;1.48;;
16440;SDS011;8330;-33.858;151.184;2023-05-10T00:05:02;5.32;;;1.58;;
16440;SDS011;8330;-33.858;151.184;2023-05-10T00:07:35;5.32;;;1.52;;
16440;SDS011;8330;-33.858;151.184;2023-05-10T00:10:07;1.40;;;1.30;;
16440;SDS011;8330;-33.858;151.184;2023-05-10T00:12:38;1.67;;;1.27;;
16440;SDS011;8330;-33.858;151.184;2023-05-10T02:36:57;2.58;;;0.80;;
16440;SDS011;8330;-33.858;151.184;2023-05-10T02:39:44;4.13;;;0.75;;
16440;SDS011;8330;-33.858;151.184;2023-05-10T02:42:32;1.58;;;0.93;;
16440;SDS011;8330;-33.858;151.184;2023-05-10T02:45:22;5.30;;;0.90;;
16440;SDS011;8330;-33.858;151.184;2023-05-10T02:48:12;1.38;;;0.60;;
16440;SDS011;8330;-33.858;151.184;2023-05-10T02:51:00;1.55;;;0.75;;
16440;SDS011;8330;-33.858;151.184;2023-05-10T02:53:51;1.20;;;0.80;;
16440;SDS011;8330;-33.858;151.184;2023-05-10T02:56:40;1.92;;;0.90;;
16440;SDS011;8330;-33.858;151.184;2023-05-10T02:59:36;3.20;;;1.10;;
16440;SDS011;8330;-33.858;151.184;2023-05-10T03:02:22;1.65;;;0.82;;
16440;SDS011;8330;-33.858;151.184;2023-05-10T03:05:09;1.85;;;0.73;;
16440;SDS011;8330;-33.858;151.184;2023-05-10T03:07:56;2.80;;;0.82;;
16440;SDS011;8330;-33.858;151.184;2023-05-10T03:10:47;3.47;;;0.85;;
16440;SDS011;8330;-33.858;151.184;2023-05-10T03:13:43;3.60;;;0.77;;
16440;SDS011;8330;-33.858;151.184;2023-05-10T03:16:40;2.00;;;0.77;;
16440;SDS011;8330;-33.858;151.184;2023-05-10T03:19:30;2.50;;;1.00;;
16440;SDS011;8330;-33.858;151.184;2023-05-10T03:22:23;2.88;;;0.70;;
16440;SDS011;8330;-33.858;151.184;2023-05-10T03:25:13;2.65;;;0.90;;
16440;SDS011;8330;-33.858;151.184;2023-05-10T03:28:05;2.67;;;0.90;;
16440;SDS011;8330;-33.858;151.184;2023-05-10T03:30:53;4.53;;;0.80;;
16440;SDS011;8330;-33.858;151.184;2023-05-10T03:33:46;2.22;;;0.70;;
16440;SDS011;8330;-33.858;151.184;2023-05-10T03:36:33;1.60;;;0.70;;
16440;SDS011;8330;-33.858;151.184;2023-05-10T03:39:20;2.33;;;0.80;;
16440;SDS011;8330;-33.858;151.184;2023-05-10T03:42:07;1.67;;;0.82;;
16440;SDS011;8330;-33.858;151.184;2023-05-10T03:44:56;2.58;;;0.93;;
16440;SDS011;8330;-33.858;151.184;2023-05-10T03:47:42;2.15;;;1.30;;
16440;SDS011;8330;-33.858;151.184;2023-05-10T03:50:29;1.23;;;0.75;;
16440;SDS011;8330;-33.858;151.184;2023-05-10T03:53:16;3.28;;;0.93;;
16440;SDS011;8330;-33.858;151.184;2023-05-10T03:56:03;4.25;;;1.20;;
16440;SDS011;8330;-33.858;151.184;2023-05-10T03:58:50;2.67;;;1.20;;
16440;SDS011;8330;-33.858;151.184;2023-05-10T04:01:39;3.42;;;2.00;;
16440;SDS011;8330;-33.858;151.184;2023-05-10T04:04:25;4.35;;;2.35;;
16440;SDS011;8330;-33.858;151.184;2023-05-10T04:07:12;5.43;;;2.05;;
16440;SDS011;8330;-33.858;151.184;2023-05-10T04:09:59;4.10;;;1.40;;
16440;SDS011;8330;-33.858;151.184;2023-05-10T04:12:46;2.53;;;1.00;;
16440;SDS011;8330;-33.858;151.184;2023-05-10T04:15:32;2.25;;;1.20;;
16440;SDS011;8330;-33.858;151.184;2023-05-10T04:18:21;2.70;;;1.27;;
16440;SDS011;8330;-33.858;151.184;2023-05-10T04:21:11;2.08;;;1.20;;
16440;SDS011;8330;-33.858;151.184;2023-05-10T04:23:58;2.65;;;1.20;;
16440;SDS011;8330;-33.858;151.184;2023-05-10T04:26:45;2.50;;;1.20;;
16440;SDS011;8330;-33.858;151.184;2023-05-10T04:29:31;5.30;;;1.40;;
16440;SDS011;8330;-33.858;151.184;2023-05-10T04:32:18;3.80;;;1.08;;
16440;SDS011;8330;-33.858;151.184;2023-05-10T04:35:07;2.83;;;1.00;;
16440;SDS011;8330;-33.858;151.184;2023-05-10T04:37:54;2.85;;;1.05;;
16440;SDS011;8330;-33.858;151.184;2023-05-10T04:40:41;3.17;;;1.10;;
16440;SDS011;8330;-33.858;151.184;2023-05-10T04:43:28;1.90;;;0.93;;
16440;SDS011;8330;-33.858;151.184;2023-05-10T04:46:15;1.73;;;0.85;;
16440;SDS011;8330;-33.858;151.184;2023-05-10T04:49:02;2.38;;;0.93;;
16440;SDS011;8330;-33.858;151.184;2023-05-10T04:51:51;4.13;;;1.05;;
16440;SDS011;8330;-33.858;151.184;2023-05-10T04:54:37;3.97;;;0.90;;
16440;SDS011;8330;-33.858;151.184;2023-05-10T04:57:24;5.13;;;1.02;;
16440;SDS011;8330;-33.858;151.184;2023-05-10T05:00:11;2.55;;;1.00;;
16440;SDS011;8330;-33.858;151.184;2023-05-10T05:02:59;1.75;;;0.80;;
16440;SDS011;8330;-33.858;151.184;2023-05-10T05:05:46;2.83;;;0.90;;
16440;SDS011;8330;-33.858;151.184;2023-05-10T05:08:35;4.03;;;0.80;;
16440;SDS011;8330;-33.858;151.184;2023-05-10T05:11:22;2.35;;;0.70;;
16440;SDS011;8330;-33.858;151.184;2023-05-10T05:14:09;2.72;;;0.85;;
16440;SDS011;8330;-33.858;151.184;2023-05-10T05:16:55;5.13;;;0.90;;
16440;SDS011;8330;-33.858;151.184;2023-05-10T05:19:42;2.80;;;0.90;;
16440;SDS011;8330;-33.858;151.184;2023-05-10T05:22:29;2.28;;;0.75;;
16440;SDS011;8330;-33.858;151.184;2023-05-10T05:25:17;1.77;;;0.70;;
16440;SDS011;8330;-33.858;151.184;2023-05-10T05:28:04;3.08;;;1.00;;
16440;SDS011;8330;-33.858;151.184;2023-05-10T05:30:52;5.40;;;1.00;;
16440;SDS011;8330;-33.858;151.184;2023-05-10T05:33:39;1.88;;;0.60;;
16440;SDS011;8330;-33.858;151.184;2023-05-10T05:36:26;2.92;;;0.95;;
16440;SDS011;8330;-33.858;151.184;2023-05-10T05:39:13;1.90;;;1.00;;
16440;SDS011;8330;-33.858;151.184;2023-05-10T05:42:02;3.45;;;0.82;;
16440;SDS011;8330;-33.858;151.184;2023-05-10T05:44:49;5.18;;;1.10;;
16440;SDS011;8330;-33.858;151.184;2023-05-10T05:47:36;1.92;;;0.73;;
16440;SDS011;8330;-33.858;151.184;2023-05-10T05:50:22;4.10;;;1.20;;
16440;SDS011;8330;-33.858;151.184;2023-05-10T05:53:10;1.73;;;1.00;;
16440;SDS011;8330;-33.858;151.184;2023-05-10T05:55:57;3.08;;;1.00;;
16440;SDS011;8330;-33.858;151.184;2023-05-10T05:58:46;1.40;;;0.90;;
16440;SDS011;8330;-33.858;151.184;2023-05-10T06:01:32;3.95;;;0.95;;
16440;SDS011;8330;-33.858;151.184;2023-05-10T06:04:20;3.78;;;0.98;;
16440;SDS011;8330;-33.858;151.184;2023-05-10T06:07:07;2.55;;;0.70;;
16440;SDS011;8330;-33.858;151.184;2023-05-10T06:09:54;1.60;;;0.90;;
16440;SDS011;8330;-33.858;151.184;2023-05-10T06:12:40;2.72;;;1.00;;
16440;SDS011;8330;-33.858;151.184;2023-05-10T06:15:29;3.00;;;1.00;;
16440;SDS011;8330;-33.858;151.184;2023-05-10T06:18:17;1.85;;;0.82;;
16440;SDS011;8330;-33.858;151.184;2023-05-10T06:21:04;2.88;;;0.77;;
16440;SDS011;8330;-33.858;151.184;2023-05-10T06:23:51;3.25;;;1.20;;
16440;SDS011;8330;-33.858;151.184;2023-05-10T06:26:38;1.77;;;0.70;;
16440;SDS011;8330;-33.858;151.184;2023-05-10T06:29:25;2.50;;;0.80;;
16440;SDS011;8330;-33.858;151.184;2023-05-10T06:32:14;2.75;;;0.80;;
16440;SDS011;8330;-33.858;151.184;2023-05-10T06:35:01;3.03;;;0.85;;
16440;SDS011;8330;-33.858;151.184;2023-05-10T06:37:48;1.90;;;0.80;;
16440;SDS011;8330;-33.858;151.184;2023-05-10T06:40:35;2.85;;;0.93;;
16440;SDS011;8330;-33.858;151.184;2023-05-10T06:43:21;2.28;;;0.85;;
16440;SDS011;8330;-33.858;151.184;2023-05-10T06:46:08;2.85;;;0.90;;
16440;SDS011;8330;-33.858;151.184;2023-05-10T06:48:57;1.27;;;0.70;;
16440;SDS011;8330;-33.858;151.184;2023-05-10T06:51:43;1.65;;;0.82;;
16440;SDS011;8330;-33.858;151.184;2023-05-10T06:54:31;3.95;;;0.88;;
16440;SDS011;8330;-33.858;151.184;2023-05-10T06:57:18;2.83;;;0.85;;
16440;SDS011;8330;-33.858;151.184;2023-05-10T07:00:05;2.28;;;0.85;;
16440;SDS011;8330;-33.858;151.184;2023-05-10T08:21:33;4.88;;;3.17;;
16440;SDS011;8330;-33.858;151.184;2023-05-10T08:24:04;7.35;;;3.22;;
16440;SDS011;8330;-33.858;151.184;2023-05-10T08:26:35;5.93;;;2.80;;
16440;SDS011;8330;-33.858;151.184;2023-05-10T08:29:09;5.63;;;2.10;;
16440;SDS011;8330;-33.858;151.184;2023-05-10T08:31:41;4.80;;;2.05;;
16440;SDS011;8330;-33.858;151.184;2023-05-10T08:34:15;5.45;;;1.98;;
16440;SDS011;8330;-33.858;151.184;2023-05-10T08:36:47;4.20;;;1.88;;
16440;SDS011;8330;-33.858;151.184;2023-05-10T08:39:18;3.50;;;1.70;;
16440;SDS011;8330;-33.858;151.184;2023-05-10T08:41:50;6.50;;;2.20;;
16440;SDS011;8330;-33.858;151.184;2023-05-10T08:44:23;7.07;;;2.60;;
16440;SDS011;8330;-33.858;151.184;2023-05-10T08:46:54;4.22;;;2.38;;
16440;SDS011;8330;-33.858;151.184;2023-05-10T08:49:28;5.25;;;2.53;;
16440;SDS011;8330;-33.858;151.184;2023-05-10T08:52:02;7.82;;;3.55;;
16440;SDS011;8330;-33.858;151.184;2023-05-10T08:54:34;7.80;;;3.40;;
16440;SDS011;8330;-33.858;151.184;2023-05-10T08:57:07;5.28;;;2.83;;
16440;SDS011;8330;-33.858;151.184;2023-05-10T08:59:38;9.40;;;3.00;;
16440;SDS011;8330;-33.858;151.184;2023-05-10T09:02:10;4.78;;;2.70;;
16440;SDS011;8330;-33.858;151.184;2023-05-10T09:04:44;9.10;;;3.90;;
16440;SDS011;8330;-33.858;151.184;2023-05-10T09:07:16;6.32;;;2.90;;
16440;SDS011;8330;-33.858;151.184;2023-05-10T09:09:48;5.75;;;2.60;;
16440;SDS011;8330;-33.858;151.184;2023-05-10T09:12:20;7.00;;;2.58;;
16440;SDS011;8330;-33.858;151.184;2023-05-10T09:14:51;6.75;;;2.85;;
16440;SDS011;8330;-33.858;151.184;2023-05-10T09:17:23;6.85;;;2.40;;
16440;SDS011;8330;-33.858;151.184;2023-05-10T09:20:00;7.65;;;2.47;;
16440;SDS011;8330;-33.858;151.184;2023-05-10T09:22:31;7.30;;;2.72;;
16440;SDS011;8330;-33.858;151.184;2023-05-10T09:25:04;9.52;;;3.08;;
16440;SDS011;8330;-33.858;151.184;2023-05-10T09:27:37;6.20;;;2.13;;
16440;SDS011;8330;-33.858;151.184;2023-05-10T09:30:09;6.63;;;2.28;;
16440;SDS011;8330;-33.858;151.184;2023-05-10T09:32:44;6.82;;;2.45;;
16440;SDS011;8330;-33.858;151.184;2023-05-10T09:35:19;7.43;;;2.85;;
16440;SDS011;8330;-33.858;151.184;2023-05-10T09:37:51;6.25;;;2.85;;
16440;SDS011;8330;-33.858;151.184;2023-05-10T09:40:23;8.93;;;3.45;;
16440;SDS011;8330;-33.858;151.184;2023-05-10T09:42:56;8.77;;;3.40;;
16440;SDS011;8330;-33.858;151.184;2023-05-10T09:45:28;7.30;;;3.05;;
16440;SDS011;8330;-33.858;151.184;2023-05-10T09:47:59;6.20;;;2.67;;
16440;SDS011;8330;-33.858;151.184;2023-05-10T09:50:33;8.40;;;3.10;;
16440;SDS011;8330;-33.858;151.184;2023-05-10T09:53:05;6.35;;;3.08;;
16440;SDS011;8330;-33.858;151.184;2023-05-10T09:55:39;6.65;;;2.92;;
16440;SDS011;8330;-33.858;151.184;2023-05-10T09:58:11;5.63;;;2.88;;
16440;SDS011;8330;-33.858;151.184;2023-05-10T10:00:43;7.40;;;2.97;;
16440;SDS011;8330;-33.858;151.184;2023-05-10T10:03:18;6.60;;;2.90;;
16440;SDS011;8330;-33.858;151.184;2023-05-10T10:05:52;6.72;;;2.85;;
16440;SDS011;8330;-33.858;151.184;2023-05-10T10:08:23;8.23;;;2.88;;
16440;SDS011;8330;-33.858;151.184;2023-05-10T10:10:55;7.80;;;2.55;;
16440;SDS011;8330;-33.858;151.184;2023-05-10T10:13:26;7.50;;;3.20;;
16440;SDS011;8330;-33.858;151.184;2023-05-10T10:15:58;7.85;;;3.30;;
16440;SDS011;8330;-33.858;151.184;2023-05-10T10:18:29;7.80;;;3.38;;
16440;SDS011;8330;-33.858;151.184;2023-05-10T10:21:07;10.45;;;3.40;;
16440;SDS011;8330;-33.858;151.184;2023-05-10T10:23:38;7.60;;;2.85;;
16440;SDS011;8330;-33.858;151.184;2023-05-10T10:26:09;5.93;;;2.88;;
16440;SDS011;8330;-33.858;151.184;2023-05-10T10:28:44;8.18;;;3.35;;
16440;SDS011;8330;-33.858;151.184;2023-05-10T10:31:23;6.72;;;3.55;;
16440;SDS011;8330;-33.858;151.184;2023-05-10T10:34:03;7.70;;;3.10;;
16440;SDS011;8330;-33.858;151.184;2023-05-10T10:36:42;9.18;;;3.70;;
16440;SDS011;8330;-33.858;151.184;2023-05-10T10:39:14;9.13;;;3.67;;
16440;SDS011;8330;-33.858;151.184;2023-05-10T10:41:50;12.18;;;7.20;;
16440;SDS011;8330;-33.858;151.184;2023-05-10T10:44:35;11.88;;;6.47;;
16440;SDS011;8330;-33.858;151.184;2023-05-10T10:50:06;9.85;;;3.67;;
16440;SDS011;8330;-33.858;151.184;2023-05-10T10:52:41;7.15;;;3.08;;
16440;SDS011;8330;-33.858;151.184;2023-05-10T10:55:16;8.93;;;3.80;;
16440;SDS011;8330;-33.858;151.184;2023-05-10T10:57:49;6.07;;;2.92;;
16440;SDS011;8330;-33.858;151.184;2023-05-10T11:00:27;12.05;;;3.65;;
16440;SDS011;8330;-33.858;151.184;2023-05-10T11:02:59;8.77;;;3.55;;
16440;SDS011;8330;-33.858;151.184;2023-05-10T11:05:36;7.35;;;2.78;;
16440;SDS011;8330;-33.858;151.184;2023-05-10T11:08:17;8.73;;;3.67;;
16440;SDS011;8330;-33.858;151.184;2023-05-10T11:11:04;6.30;;;3.38;;
16440;SDS011;8330;-33.858;151.184;2023-05-10T11:13:39;8.23;;;3.03;;
16440;SDS011;8330;-33.858;151.184;2023-05-10T11:16:12;7.65;;;3.03;;
16440;SDS011;8330;-33.858;151.184;2023-05-10T11:18:54;9.27;;;3.60;;
16440;SDS011;8330;-33.858;151.184;2023-05-10T11:21:28;6.10;;;3.28;;
16440;SDS011;8330;-33.858;151.184;2023-05-10T11:24:01;8.75;;;3.50;;
16440;SDS011;8330;-33.858;151.184;2023-05-10T11:26:41;5.97;;;3.00;;
16440;SDS011;8330;-33.858;151.184;2023-05-10T11:29:13;7.60;;;3.35;;
16440;SDS011;8330;-33.858;151.184;2023-05-10T11:31:45;10.45;;;3.20;;
16440;SDS011;8330;-33.858;151.184;2023-05-10T11:34:23;6.63;;;3.03;;
16440;SDS011;8330;-33.858;151.184;2023-05-10T11:36:56;5.47;;;2.65;;
16440;SDS011;8330;-33.858;151.184;2023-05-10T11:39:31;6.63;;;2.97;;
16440;SDS011;8330;-33.858;151.184;2023-05-10T11:42:02;6.93;;;3.03;;
16440;SDS011;8330;-33.858;151.184;2023-05-10T11:44:35;6.07;;;2.67;;
16440;SDS011;8330;-33.858;151.184;2023-05-10T11:47:07;7.82;;;2.90;;
16440;SDS011;8330;-33.858;151.184;2023-05-10T11:49:38;5.78;;;3.10;;
16440;SDS011;8330;-33.858;151.184;2023-05-10T11:52:12;8.32;;;3.67;;
16440;SDS011;8330;-33.858;151.184;2023-05-10T11:54:48;8.73;;;4.00;;
16440;SDS011;8330;-33.858;151.184;2023-05-10T11:57:26;7.90;;;3.75;;
16440;SDS011;8330;-33.858;151.184;2023-05-10T11:59:57;9.52;;;3.58;;
16440;SDS011;8330;-33.858;151.184;2023-05-10T12:02:29;10.68;;;4.18;;
16440;SDS011;8330;-33.858;151.184;2023-05-10T12:05:01;8.88;;;3.65;;
16440;SDS011;8330;-33.858;151.184;2023-05-10T12:07:33;8.50;;;3.00;;
16440;SDS011;8330;-33.858;151.184;2023-05-10T12:10:08;7.53;;;3.63;;
16440;SDS011;8330;-33.858;151.184;2023-05-10T12:12:40;7.93;;;3.78;;
16440;SDS011;8330;-33.858;151.184;2023-05-10T12:15:12;8.45;;;3.72;;
16440;SDS011;8330;-33.858;151.184;2023-05-10T12:17:49;6.45;;;3.50;;
16440;SDS011;8330;-33.858;151.184;2023-05-10T12:20:20;8.32;;;3.42;;
16440;SDS011;8330;-33.858;151.184;2023-05-10T12:22:57;7.53;;;3.40;;
16440;SDS011;8330;-33.858;151.184;2023-05-10T12:25:32;5.97;;;2.92;;
16440;SDS011;8330;-33.858;151.184;2023-05-10T12:28:04;9.02;;;3.38;;
16440;SDS011;8330;-33.858;151.184;2023-05-10T12:30:37;8.85;;;3.35;;
16440;SDS011;8330;-33.858;151.184;2023-05-10T12:33:08;10.15;;;3.75;;
16440;SDS011;8330;-33.858;151.184;2023-05-10T12:35:44;6.75;;;3.72;;
16440;SDS011;8330;-33.858;151.184;2023-05-10T12:38:29;6.93;;;3.50;;
16440;SDS011;8330;-33.858;151.184;2023-05-10T12:41:04;7.88;;;3.47;;
16440;SDS011;8330;-33.858;151.184;2023-05-10T12:43:36;8.57;;;3.67;;
16440;SDS011;8330;-33.858;151.184;2023-05-10T12:46:08;6.10;;;3.45;;
16440;SDS011;8330;-33.858;151.184;2023-05-10T12:48:40;7.40;;;3.40;;
16440;SDS011;8330;-33.858;151.184;2023-05-10T12:51:12;9.50;;;3.53;;
16440;SDS011;8330;-33.858;151.184;2023-05-10T12:53:45;8.48;;;3.80;;
16440;SDS011;8330;-33.858;151.184;2023-05-10T12:56:19;6.57;;;3.60;;
16440;SDS011;8330;-33.858;151.184;2023-05-10T12:58:52;8.90;;;3.58;;
16440;SDS011;8330;-33.858;151.184;2023-05-10T13:01:23;8.25;;;3.10;;
16440;SDS011;8330;-33.858;151.184;2023-05-10T13:03:56;7.80;;;3.55;;
16440;SDS011;8330;-33.858;151.184;2023-05-10T13:06:28;8.68;;;3.50;;
16440;SDS011;8330;-33.858;151.184;2023-05-10T13:08:59;10.75;;;3.95;;
16440;SDS011;8330;-33.858;151.184;2023-05-10T13:11:32;8.55;;;3.80;;
16440;SDS011;8330;-33.858;151.184;2023-05-10T13:14:04;9.13;;;3.38;;
16440;SDS011;8330;-33.858;151.184;2023-05-10T13:16:35;7.40;;;3.75;;
16440;SDS011;8330;-33.858;151.184;2023-05-10T13:19:08;6.57;;;3.47;;
16440;SDS011;8330;-33.858;151.184;2023-05-10T13:21:39;7.05;;;3.92;;
16440;SDS011;8330;-33.858;151.184;2023-05-10T13:24:10;6.85;;;3.50;;
16440;SDS011;8330;-33.858;151.184;2023-05-10T13:26:45;8.60;;;4.07;;
16440;SDS011;8330;-33.858;151.184;2023-05-10T13:29:16;9.85;;;4.05;;
16440;SDS011;8330;-33.858;151.184;2023-05-10T13:31:48;7.00;;;3.78;;
16440;SDS011;8330;-33.858;151.184;2023-05-10T13:34:19;7.60;;;4.00;;
16440;SDS011;8330;-33.858;151.184;2023-05-10T13:36:53;7.22;;;3.92;;
16440;SDS011;8330;-33.858;151.184;2023-05-10T13:39:24;6.55;;;3.75;;
16440;SDS011;8330;-33.858;151.184;2023-05-10T13:42:01;8.07;;;3.97;;
16440;SDS011;8330;-33.858;151.184;2023-05-10T13:44:32;8.38;;;4.20;;
16440;SDS011;8330;-33.858;151.184;2023-05-10T13:47:05;8.30;;;3.90;;
16440;SDS011;8330;-33.858;151.184;2023-05-10T13:49:36;8.70;;;3.97;;
16440;SDS011;8330;-33.858;151.184;2023-05-10T13:52:07;6.65;;;4.03;;
16440;SDS011;8330;-33.858;151.184;2023-05-10T13:54:38;8.13;;;3.75;;
16440;SDS011;8330;-33.858;151.184;2023-05-10T13:57:11;7.10;;;3.85;;
16440;SDS011;8330;-33.858;151.184;2023-05-10T13:59:44;9.00;;;3.92;;
16440;SDS011;8330;-33.858;151.184;2023-05-10T14:02:15;8.10;;;4.00;;
16440;SDS011;8330;-33.858;151.184;2023-05-10T14:04:46;6.45;;;3.60;;
16440;SDS011;8330;-33.858;151.184;2023-05-10T14:07:17;9.05;;;4.13;;
16440;SDS011;8330;-33.858;151.184;2023-05-10T14:09:48;8.48;;;3.58;;
16440;SDS011;8330;-33.858;151.184;2023-05-10T14:12:24;8.40;;;4.15;;
16440;SDS011;8330;-33.858;151.184;2023-05-10T14:14:56;6.60;;;4.07;;
16440;SDS011;8330;-33.858;151.184;2023-05-10T14:17:27;9.50;;;3.85;;
16440;SDS011;8330;-33.858;151.184;2023-05-10T14:19:58;6.55;;;3.78;;
16440;SDS011;8330;-33.858;151.184;2023-05-10T14:22:30;8.30;;;3.85;;
16440;SDS011;8330;-33.858;151.184;2023-05-10T14:25:01;8.65;;;3.97;;
16440;SDS011;8330;-33.858;151.184;2023-05-10T14:27:34;9.60;;;3.67;;
16440;SDS011;8330;-33.858;151.184;2023-05-10T14:30:05;9.63;;;4.15;;
16440;SDS011;8330;-33.858;151.184;2023-05-10T14:32:37;6.40;;;3.60;;
16440;SDS011;8330;-33.858;151.184;2023-05-10T14:35:08;6.43;;;3.42;;
16440;SDS011;8330;-33.858;151.184;2023-05-10T14:37:39;6.18;;;3.63;;
16440;SDS011;8330;-33.858;151.184;2023-05-10T14:40:11;5.57;;;3.20;;
16440;SDS011;8330;-33.858;151.184;2023-05-10T14:42:45;6.43;;;3.53;;
16440;SDS011;8330;-33.858;151.184;2023-05-10T14:45:16;8.80;;;3.88;;
16440;SDS011;8330;-33.858;151.184;2023-05-10T14:47:47;7.20;;;3.70;;
16440;SDS011;8330;-33.858;151.184;2023-05-10T14:50:19;5.65;;;3.38;;
16440;SDS011;8330;-33.858;151.184;2023-05-10T14:52:51;6.10;;;3.40;;
16440;SDS011;8330;-33.858;151.184;2023-05-10T14:55:22;8.63;;;3.58;;
16440;SDS011;8330;-33.858;151.184;2023-05-10T14:57:55;7.25;;;3.20;;
16440;SDS011;8330;-33.858;151.184;2023-05-10T15:00:27;5.50;;;3.13;;
16440;SDS011;8330;-33.858;151.184;2023-05-10T15:02:58;8.30;;;3.00;;
16440;SDS011;8330;-33.858;151.184;2023-05-10T15:05:29;6.25;;;3.28;;
16440;SDS011;8330;-33.858;151.184;2023-05-10T15:08:00;8.52;;;3.10;;
16440;SDS011;8330;-33.858;151.184;2023-05-10T15:10:32;7.47;;;3.13;;
16440;SDS011;8330;-33.858;151.184;2023-05-10T15:13:05;6.43;;;3.17;;
16440;SDS011;8330;-33.858;151.184;2023-05-10T15:15:36;9.40;;;3.28;;
16440;SDS011;8330;-33.858;151.184;2023-05-10T15:18:10;5.65;;;3.03;;
16440;SDS011;8330;-33.858;151.184;2023-05-10T15:20:41;7.68;;;2.95;;
16440;SDS011;8330;-33.858;151.184;2023-05-10T15:23:12;6.43;;;3.03;;
16440;SDS011;8330;-33.858;151.184;2023-05-10T15:25:43;4.35;;;2.78;;
16440;SDS011;8330;-33.858;151.184;2023-05-10T15:28:17;7.32;;;3.10;;
16440;SDS011;8330;-33.858;151.184;2023-05-10T15:30:48;5.47;;;2.78;;
16440;SDS011;8330;-33.858;151.184;2023-05-10T15:33:20;7.07;;;3.30;;
16440;SDS011;8330;-33.858;151.184;2023-05-10T15:35:51;6.75;;;3.05;;
16440;SDS011;8330;-33.858;151.184;2023-05-10T15:38:22;8.88;;;3.45;;
16440;SDS011;8330;-33.858;151.184;2023-05-10T15:40:55;7.47;;;2.95;;
16440;SDS011;8330;-33.858;151.184;2023-05-10T15:43:31;5.43;;;3.28;;
16440;SDS011;8330;-33.858;151.184;2023-05-10T15:46:02;6.72;;;3.22;;
16440;SDS011;8330;-33.858;151.184;2023-05-10T15:48:33;7.85;;;3.63;;
16440;SDS011;8330;-33.858;151.184;2023-05-10T15:51:08;8.63;;;3.45;;
16440;SDS011;8330;-33.858;151.184;2023-05-10T15:53:39;8.40;;;3.00;;
16440;SDS011;8330;-33.858;151.184;2023-05-10T15:56:10;6.22;;;3.10;;
16440;SDS011;8330;-33.858;151.184;2023-05-10T15:58:43;5.03;;;3.17;;
16440;SDS011;8330;-33.858;151.184;2023-05-10T16:01:14;6.97;;;3.15;;
16440;SDS011;8330;-33.858;151.184;2023-05-10T16:03:46;6.22;;;2.88;;
16440;SDS011;8330;-33.858;151.184;2023-05-10T16:06:17;6.75;;;3.20;;
16440;SDS011;8330;-33.858;151.184;2023-05-10T16:08:48;4.70;;;2.63;;
16440;SDS011;8330;-33.858;151.184;2023-05-10T16:11:20;7.15;;;3.08;;
16440;SDS011;8330;-33.858;151.184;2023-05-10T16:13:53;9.70;;;3.30;;
16440;SDS011;8330;-33.858;151.184;2023-05-10T16:16:25;9.38;;;3.08;;
16440;SDS011;8330;-33.858;151.184;2023-05-10T16:18:56;5.20;;;2.92;;
16440;SDS011;8330;-33.858;151.184;2023-05-10T16:21:29;8.95;;;2.80;;
16440;SDS011;8330;-33.858;151.184;2023-05-10T16:24:01;5.57;;;2.80;;
16440;SDS011;8330;-33.858;151.184;2023-05-10T16:26:33;7.32;;;3.47;;
16440;SDS011;8330;-33.858;151.184;2023-05-10T16:29:08;6.03;;;3.00;;
16440;SDS011;8330;-33.858;151.184;2023-05-10T16:31:39;6.03;;;2.63;;
16440;SDS011;8330;-33.858;151.184;2023-05-10T16:34:10;5.45;;;3.03;;
16440;SDS011;8330;-33.858;151.184;2023-05-10T16:36:41;5.43;;;2.75;;
16440;SDS011;8330;-33.858;151.184;2023-05-10T16:39:13;6.53;;;3.00;;
16440;SDS011;8330;-33.858;151.184;2023-05-10T16:41:44;6.53;;;2.40;;
16440;SDS011;8330;-33.858;151.184;2023-05-10T16:44:17;7.00;;;2.58;;
16440;SDS011;8330;-33.858;151.184;2023-05-10T16:46:48;5.18;;;2.65;;
16440;SDS011;8330;-33.858;151.184;2023-05-10T16:49:20;6.80;;;2.72;;
16440;SDS011;8330;-33.858;151.184;2023-05-10T16:51:51;9.15;;;2.88;;
16440;SDS011;8330;-33.858;151.184;2023-05-10T16:54:23;6.63;;;2.80;;
16440;SDS011;8330;-33.858;151.184;2023-05-10T16:56:54;12.32;;;3.33;;
16440;SDS011;8330;-33.858;151.184;2023-05-10T16:59:28;6.82;;;2.97;;
16440;SDS011;8330;-33.858;151.184;2023-05-10T17:02:00;7.40;;;3.25;;
16440;SDS011;8330;-33.858;151.184;2023-05-10T17:04:31;6.90;;;3.10;;
16440;SDS011;8330;-33.858;151.184;2023-05-10T17:07:03;5.57;;;2.78;;
16440;SDS011;8330;-33.858;151.184;2023-05-10T17:09:34;5.88;;;2.80;;
16440;SDS011;8330;-33.858;151.184;2023-05-10T17:12:10;5.85;;;2.75;;
16440;SDS011;8330;-33.858;151.184;2023-05-10T17:14:44;5.25;;;2.58;;
16440;SDS011;8330;-33.858;151.184;2023-05-10T17:17:15;6.53;;;2.72;;
16440;SDS011;8330;-33.858;151.184;2023-05-10T17:19:46;5.15;;;2.40;;
16440;SDS011;8330;-33.858;151.184;2023-05-10T17:22:17;4.43;;;2.47;;
16440;SDS011;8330;-33.858;151.184;2023-05-10T17:24:49;4.45;;;2.25;;
16440;SDS011;8330;-33.858;151.184;2023-05-10T17:27:20;6.28;;;2.55;;
16440;SDS011;8330;-33.858;151.184;2023-05-10T17:29:56;5.55;;;2.25;;
16440;SDS011;8330;-33.858;151.184;2023-05-10T17:32:27;5.95;;;2.60;;
16440;SDS011;8330;-33.858;151.184;2023-05-10T17:34:59;7.78;;;2.60;;
16440;SDS011;8330;-33.858;151.184;2023-05-10T17:37:30;4.82;;;2.60;;
16440;SDS011;8330;-33.858;151.184;2023-05-10T17:40:02;6.40;;;2.30;;
16440;SDS011;8330;-33.858;151.184;2023-05-10T17:42:33;5.85;;;1.95;;
16440;SDS011;8330;-33.858;151.184;2023-05-10T17:45:07;5.30;;;2.30;;
16440;SDS011;8330;-33.858;151.184;2023-05-10T17:47:39;4.95;;;2.25;;
16440;SDS011;8330;-33.858;151.184;2023-05-10T17:50:10;4.10;;;2.20;;
16440;SDS011;8330;-33.858;151.184;2023-05-10T17:52:41;5.93;;;2.35;;
16440;SDS011;8330;-33.858;151.184;2023-05-10T17:55:13;5.78;;;2.38;;
16440;SDS011;8330;-33.858;151.184;2023-05-10T17:57:45;3.80;;;2.10;;
16440;SDS011;8330;-33.858;151.184;2023-05-10T18:00:18;5.65;;;2.28;;
16440;SDS011;8330;-33.858;151.184;2023-05-10T18:02:49;6.38;;;2.20;;
16440;SDS011;8330;-33.858;151.184;2023-05-10T18:05:20;4.60;;;2.38;;
16440;SDS011;8330;-33.858;151.184;2023-05-10T18:07:51;4.80;;;2.30;;
16440;SDS011;8330;-33.858;151.184;2023-05-10T18:10:23;5.72;;;2.53;;
16440;SDS011;8330;-33.858;151.184;2023-05-10T18:12:54;8.07;;;2.58;;
16440;SDS011;8330;-33.858;151.184;2023-05-10T18:15:27;4.50;;;2.25;;
16440;SDS011;8330;-33.858;151.184;2023-05-10T18:18:00;5.13;;;2.35;;
16440;SDS011;8330;-33.858;151.184;2023-05-10T18:20:32;4.72;;;2.15;;
16440;SDS011;8330;-33.858;151.184;2023-05-10T18:23:03;4.13;;;1.88;;
16440;SDS011;8330;-33.858;151.184;2023-05-10T18:25:34;4.85;;;2.05;;
16440;SDS011;8330;-33.858;151.184;2023-05-10T18:28:05;4.85;;;1.95;;
16440;SDS011;8330;-33.858;151.184;2023-05-10T18:30:39;4.65;;;2.15;;
16440;SDS011;8330;-33.858;151.184;2023-05-10T18:33:10;4.63;;;2.10;;
16440;SDS011;8330;-33.858;151.184;2023-05-10T18:35:41;4.65;;;2.10;;
16440;SDS011;8330;-33.858;151.184;2023-05-10T18:38:12;4.13;;;2.30;;
16440;SDS011;8330;-33.858;151.184;2023-05-10T18:40:43;4.13;;;1.98;;
16440;SDS011;8330;-33.858;151.184;2023-05-10T18:43:14;5.00;;;2.03;;
16440;SDS011;8330;-33.858;151.184;2023-05-10T18:45:47;4.68;;;2.15;;
16440;SDS011;8330;-33.858;151.184;2023-05-10T18:48:18;5.32;;;2.20;;
16440;SDS011;8330;-33.858;151.184;2023-05-10T18:50:49;5.10;;;2.40;;
16440;SDS011;8330;-33.858;151.184;2023-05-10T18:53:21;4.65;;;2.10;;
16440;SDS011;8330;-33.858;151.184;2023-05-10T18:55:55;3.33;;;1.65;;
16440;SDS011;8330;-33.858;151.184;2023-05-10T18:58:26;7.97;;;2.17;;
16440;SDS011;8330;-33.858;151.184;2023-05-10T19:01:00;6.38;;;2.20;;